クアラルンプール の空港の天気 - METARとTAF

クアラルンプール国際空港 ( WMKK / KUL ) - マレーシア スランゴール州セパン
飛行場実況気象(Metar)
観測時間07/19 07:30 MYT (07/18 23:30 UTC)
風向・風速不定 1m/s
視程9000m
天気現象
少しの雲 雲底高度 910m
全天の4割程度の雲 雲底高度 4270m
全天の8割程度の雲 雲底高度 8530m
気温26℃
湿度94%
気圧1008hPa
METARWMKK 182330Z VRB02KT 9000 FEW030 SCT140 BKN280 26/25 Q1008 NOSIG
過去の天気等 Google飛行場航空写真 Wunderground天気予報

過去48時間のMETAR

飛行場予報(TAF)
発表時間: 7/19 07:00 MYT (7/18 23:00 UTC)
予報対象時間: 19日8時 MYT ~ 20日14時 MYT
風向・風速南南東 3m/s
視程9000m
少しの積乱雲 雲底高度 520m
19日10時 MYT ~ 19日12時 MYT に徐々に
風向・風速南南東 4m/s
少しの雲 雲底高度 550m
19日17時 MYT ~ 19日19時 MYT に徐々に
風向・風速南南東 3m/s
20日3時 MYT ~ 20日7時 MYT に 確率 30% で一時的に
風向・風速南 4m/s
視程3000m
天気現象雷雨
少しの積乱雲 雲底高度 460m
全天の4割程度の雲 雲底高度 550m
TAF WMKK 182300Z 1900/2006 16005KT 9000 FEW017CB
BECMG 1902/1904 16008KT FEW018
BECMG 1909/1911 15005KT
PROB30 TEMPO 1919/1923 18007KT 3000 TSRA FEW015CB SCT018